Time;durP1;ratioP1;P1;durP2;ratioP2;P2;SDS_P1;SDS_P2;PMS_P1;PMS_P2;Temp;Humidity;BMP_temperature;BMP_pressure;BME280_temperature;BME280_humidity;BME280_pressure;Samples;Min_cycle;Max_cycle;Signal;HPM_P1;HPM_P2
2022/09/28 00:01:13;;;;;;;6.33;5.50;;;10.10;99.90;;;;;;5032793;28;20455;-51
2022/09/28 00:03:38;;;;;;;10.23;5.60;;;10.00;99.90;;;;;;5032000;28;20804;-51
2022/09/28 00:06:08;;;;;;;6.67;5.60;;;10.10;99.90;;;;;;5032299;28;20436;-54
2022/09/28 00:08:35;;;;;;;6.90;5.60;;;10.00;99.90;;;;;;5032452;28;20244;-53
2022/09/28 00:11:02;;;;;;;9.50;6.17;;;10.00;99.90;;;;;;5032316;28;20433;-53
2022/09/28 00:13:29;;;;;;;5.60;4.80;;;10.00;99.90;;;;;;5031727;28;20452;-49
2022/09/28 00:16:08;;;;;;;6.23;5.63;;;10.00;99.90;;;;;;5032513;28;20887;-51
2022/09/28 00:18:35;;;;;;;6.20;5.53;;;10.00;99.90;;;;;;5032447;28;20529;-51
2022/09/28 00:21:01;;;;;;;6.57;5.70;;;10.10;99.90;;;;;;5033126;28;20888;-52
2022/09/28 00:23:27;;;;;;;5.87;5.10;;;10.10;99.90;;;;;;5031441;28;20790;-51
2022/09/28 00:25:53;;;;;;;7.13;5.63;;;10.10;99.90;;;;;;5032366;28;20424;-51
2022/09/28 00:28:18;;;;;;;6.97;5.20;;;10.00;99.90;;;;;;5032048;28;20737;-52
2022/09/28 00:30:44;;;;;;;5.17;4.67;;;10.00;99.90;;;;;;5031962;28;20182;-52
2022/09/28 00:33:09;;;;;;;5.13;4.47;;;10.00;99.90;;;;;;5031600;28;20548;-51
2022/09/28 00:35:35;;;;;;;5.50;4.60;;;10.00;99.90;;;;;;5031979;28;20189;-53
2022/09/28 00:38:02;;;;;;;5.63;4.80;;;10.10;99.90;;;;;;5031847;28;20183;-54
2022/09/28 00:40:28;;;;;;;5.97;5.10;;;10.10;99.90;;;;;;5031792;28;20273;-49
2022/09/28 00:42:54;;;;;;;6.10;5.27;;;10.00;99.90;;;;;;5031410;28;20600;-49
2022/09/28 00:45:23;;;;;;;6.63;5.00;;;10.00;99.90;;;;;;5031695;28;20191;-51
2022/09/28 00:47:57;;;;;;;6.23;4.60;;;10.00;99.90;;;;;;5031961;28;20195;-47
2022/09/28 00:50:30;;;;;;;5.30;4.80;;;9.90;99.90;;;;;;5031557;28;20467;-52
2022/09/28 00:53:10;;;;;;;5.03;4.30;;;9.90;99.90;;;;;;5031324;28;20793;-51
2022/09/28 00:55:44;;;;;;;4.47;4.03;;;9.70;99.90;;;;;;5030316;28;20432;-52
2022/09/28 00:58:13;;;;;;;4.57;4.17;;;9.80;99.90;;;;;;5031708;28;20506;-52
2022/09/28 01:00:39;;;;;;;4.07;3.67;;;9.80;99.90;;;;;;5031356;28;20428;-49
2022/09/28 01:03:07;;;;;;;4.23;3.53;;;9.80;99.90;;;;;;5030687;28;20417;-51
2022/09/28 01:05:34;;;;;;;7.03;4.40;;;9.90;99.90;;;;;;5031360;28;20433;-48
2022/09/28 01:08:01;;;;;;;3.50;3.17;;;9.80;99.90;;;;;;5031621;28;20761;-53
2022/09/28 01:10:29;;;;;;;4.63;4.13;;;9.50;99.90;;;;;;5030937;28;20422;-51
2022/09/28 01:12:55;;;;;;;6.10;4.10;;;9.70;99.90;;;;;;5030480;28;20413;-50
2022/09/28 01:15:24;;;;;;;7.67;5.47;;;9.70;99.90;;;;;;5031297;28;20421;-54
2022/09/28 01:17:49;;;;;;;5.20;4.70;;;9.70;99.90;;;;;;5031056;28;21186;-51
2022/09/28 01:20:46;;;;;;;6.33;5.30;;;9.40;99.90;;;;;;5032231;28;20555;-53
2022/09/28 01:23:29;;;;;;;6.30;4.70;;;9.80;99.90;;;;;;5030441;28;20631;-49
2022/09/28 01:26:22;;;;;;;7.60;5.23;;;9.80;99.90;;;;;;5030851;28;20417;-50
2022/09/28 01:28:53;;;;;;;6.63;5.40;;;9.70;99.90;;;;;;5031180;28;20461;-49
2022/09/28 01:31:24;;;;;;;6.50;5.73;;;9.60;99.90;;;;;;5030984;28;20432;-53
2022/09/28 01:34:01;;;;;;;6.03;5.40;;;9.80;99.90;;;;;;5030458;28;20429;-46
2022/09/28 01:36:33;;;;;;;6.40;5.63;;;9.70;99.90;;;;;;5030663;28;20925;-47
2022/09/28 01:39:09;;;;;;;7.80;5.90;;;9.70;99.90;;;;;;5030961;28;20468;-54
2022/09/28 01:41:39;;;;;;;6.63;5.87;;;9.70;99.90;;;;;;5030905;28;20409;-48
2022/09/28 01:44:09;;;;;;;6.80;5.30;;;9.60;99.90;;;;;;5030116;28;20428;-50
2022/09/28 01:46:45;;;;;;;6.73;6.03;;;9.60;99.90;;;;;;5030662;28;20514;-47
2022/09/28 01:49:19;;;;;;;6.80;6.10;;;9.60;99.90;;;;;;5030717;28;20800;-50
2022/09/28 01:51:58;;;;;;;6.13;5.50;;;9.50;99.90;;;;;;5030658;28;20477;-49
2022/09/28 01:54:33;;;;;;;8.37;6.50;;;9.40;99.90;;;;;;5029120;28;20905;-47
2022/09/28 01:57:10;;;;;;;6.97;5.87;;;9.40;99.90;;;;;;5030367;28;20511;-49
2022/09/28 01:59:40;;;;;;;6.97;6.27;;;9.50;99.90;;;;;;5030565;28;21261;-48
2022/09/28 02:02:47;;;;;;;8.57;6.17;;;9.60;99.90;;;;;;5030367;28;20978;-51
2022/09/28 02:05:35;;;;;;;7.13;6.43;;;9.60;99.90;;;;;;5030244;28;20872;-48
2022/09/28 02:08:19;;;;;;;7.03;6.20;;;9.70;99.90;;;;;;5030252;28;20433;-51
2022/09/28 02:10:56;;;;;;;8.93;6.07;;;9.60;99.90;;;;;;5030351;28;20429;-46
2022/09/28 02:13:42;;;;;;;8.97;6.90;;;9.60;99.90;;;;;;5028314;28;20466;-50
2022/09/28 02:16:33;;;;;;;8.83;6.80;;;9.60;99.90;;;;;;5029997;28;20425;-51
2022/09/28 02:18:59;;;;;;;9.33;7.87;;;9.60;99.90;;;;;;5030172;28;20409;-49
2022/09/28 02:21:50;;;;;;;8.40;7.50;;;9.50;99.90;;;;;;5031272;28;20931;-48
2022/09/28 02:24:27;;;;;;;8.50;7.60;;;9.60;99.90;;;;;;5017009;28;20430;-51
2022/09/28 02:26:56;;;;;;;9.00;8.03;;;9.50;99.90;;;;;;5030105;28;20417;-50
2022/09/28 02:29:22;;;;;;;12.40;8.17;;;9.50;99.90;;;;;;5029906;28;20468;-51
2022/09/28 02:31:50;;;;;;;10.20;8.00;;;9.50;99.90;;;;;;5030114;28;20420;-47
2022/09/28 02:34:16;;;;;;;8.23;7.43;;;9.50;99.90;;;;;;5029248;28;20417;-50
2022/09/28 02:36:43;;;;;;;9.47;8.00;;;9.50;99.90;;;;;;5029713;28;20425;-47
2022/09/28 02:39:16;;;;;;;12.60;9.47;;;9.50;99.90;;;;;;5029775;28;20424;-49
2022/09/28 02:42:11;;;;;;;11.50;8.60;;;9.50;99.90;;;;;;5029903;28;20512;-50
2022/09/28 02:45:02;;;;;;;9.70;8.70;;;9.50;99.90;;;;;;5029325;28;20424;-47
2022/09/28 02:47:55;;;;;;;11.37;9.10;;;9.60;99.90;;;;;;5029809;28;20454;-48
2022/09/28 02:50:23;;;;;;;11.70;9.37;;;9.60;99.90;;;;;;5029708;28;20464;-50
2022/09/28 02:53:08;;;;;;;12.30;10.33;;;9.60;99.90;;;;;;5029235;28;20432;-47
2022/09/28 02:56:06;;;;;;;12.53;9.93;;;9.60;99.90;;;;;;5027897;28;20471;-48
2022/09/28 02:59:05;;;;;;;11.50;9.87;;;9.60;99.90;;;;;;5020619;28;20468;-46
2022/09/28 03:01:36;;;;;;;12.40;10.87;;;9.60;99.90;;;;;;5029795;28;20421;-51
2022/09/28 03:04:29;;;;;;;13.30;11.00;;;9.70;99.90;;;;;;5029196;28;20417;-46
2022/09/28 03:07:02;;;;;;;11.90;10.70;;;9.70;99.90;;;;;;5029549;28;20444;-49
2022/09/28 03:09:27;;;;;;;13.70;11.63;;;9.60;99.90;;;;;;5029705;28;20809;-47
2022/09/28 03:11:57;;;;;;;14.13;11.20;;;9.30;99.90;;;;;;5028325;28;20417;-48
2022/09/28 03:14:23;;;;;;;13.20;11.50;;;9.60;99.90;;;;;;5028889;28;20542;-49
2022/09/28 03:16:49;;;;;;;15.03;12.00;;;9.60;99.90;;;;;;5029526;28;20440;-46
2022/09/28 03:19:21;;;;;;;15.40;12.60;;;9.70;99.90;;;;;;5029920;28;20526;-46
2022/09/28 03:21:47;;;;;;;14.60;11.77;;;9.70;99.90;;;;;;5016475;28;20265;-50
2022/09/28 03:24:13;;;;;;;16.90;12.97;;;9.60;99.90;;;;;;5028183;28;20431;-50
2022/09/28 03:26:39;;;;;;;17.70;14.33;;;9.60;99.90;;;;;;5028696;28;20778;-48
2022/09/28 03:29:04;;;;;;;17.67;14.67;;;9.60;99.90;;;;;;5029006;28;20206;-47
2022/09/28 03:31:30;;;;;;;19.60;15.30;;;9.70;99.90;;;;;;5029441;28;20281;-51
2022/09/28 03:33:56;;;;;;;21.60;15.37;;;9.80;99.90;;;;;;5029645;28;20236;-51
2022/09/28 03:36:21;;;;;;;18.33;14.70;;;9.60;99.90;;;;;;5033194;28;20194;-52
2022/09/28 03:38:47;;;;;;;18.87;15.40;;;9.50;99.90;;;;;;5032022;28;20190;-52
2022/09/28 03:41:13;;;;;;;18.80;15.23;;;9.70;99.90;;;;;;5032776;28;20193;-52
2022/09/28 03:43:38;;;;;;;22.70;16.27;;;9.70;99.90;;;;;;5032250;28;20194;-53
2022/09/28 03:46:04;;;;;;;19.00;14.33;;;9.60;99.90;;;;;;5033029;28;20240;-53
2022/09/28 03:48:32;;;;;;;21.43;15.50;;;9.80;99.90;;;;;;5032965;28;20210;-54
2022/09/28 03:51:01;;;;;;;19.27;16.13;;;9.70;99.90;;;;;;5032718;28;20421;-53
2022/09/28 03:53:28;;;;;;;20.27;16.23;;;9.70;99.90;;;;;;5032157;28;20533;-50
2022/09/28 03:55:54;;;;;;;18.90;14.93;;;9.50;99.90;;;;;;5031738;28;20431;-50
2022/09/28 03:58:21;;;;;;;19.30;15.17;;;9.50;99.90;;;;;;5032882;28;20425;-49
2022/09/28 04:00:50;;;;;;;19.33;15.10;;;9.50;99.90;;;;;;5032909;28;20416;-52
2022/09/28 04:03:16;;;;;;;20.40;16.17;;;9.00;99.90;;;;;;5032026;28;20518;-53
2022/09/28 04:05:52;;;;;;;19.17;16.23;;;9.40;99.90;;;;;;5032543;28;20528;-49
2022/09/28 04:08:18;;;;;;;17.87;14.70;;;9.20;99.90;;;;;;5032246;28;20186;-50
2022/09/28 04:10:44;;;;;;;24.53;17.40;;;9.20;99.90;;;;;;5032443;28;20468;-50
2022/09/28 04:13:10;;;;;;;24.00;19.40;;;9.50;99.90;;;;;;5031840;28;20429;-51
2022/09/28 04:15:37;;;;;;;22.33;17.77;;;9.30;99.90;;;;;;5032583;28;20487;-53
2022/09/28 04:18:04;;;;;;;27.20;19.07;;;9.40;99.90;;;;;;5031022;28;20877;-53
2022/09/28 04:20:30;;;;;;;25.20;19.30;;;9.60;99.90;;;;;;5033003;28;20433;-50
2022/09/28 04:22:57;;;;;;;28.40;18.83;;;9.40;99.90;;;;;;5031292;28;20429;-51
2022/09/28 04:25:22;;;;;;;27.63;19.37;;;9.30;99.90;;;;;;5032440;28;20217;-50
2022/09/28 04:30:33;;;;;;;27.10;19.20;;;9.30;99.90;;;;;;5032242;28;20685;-51
2022/09/28 04:32:59;;;;;;;22.83;18.70;;;9.30;99.90;;;;;;5031286;28;20433;-47
2022/09/28 04:35:25;;;;;;;20.33;16.33;;;9.40;99.90;;;;;;5031970;28;20515;-48
2022/09/28 04:37:50;;;;;;;24.90;17.57;;;9.50;99.90;;;;;;5031968;28;20528;-49
2022/09/28 04:40:16;;;;;;;23.63;17.00;;;9.50;99.90;;;;;;5032095;28;20653;-48
2022/09/28 04:42:42;;;;;;;21.97;16.23;;;9.40;99.90;;;;;;5030012;28;20209;-49
2022/09/28 04:45:08;;;;;;;20.53;16.07;;;9.40;99.90;;;;;;5031500;28;20191;-51
2022/09/28 04:47:34;;;;;;;21.40;16.27;;;9.40;99.90;;;;;;5031439;28;20674;-50
2022/09/28 04:49:59;;;;;;;24.83;18.27;;;9.40;99.90;;;;;;5031740;28;20491;-50
2022/09/28 04:52:26;;;;;;;21.40;16.50;;;9.40;99.90;;;;;;5031445;28;20191;-48
2022/09/28 04:54:51;;;;;;;19.70;15.90;;;9.50;99.90;;;;;;5030011;28;20232;-52
2022/09/28 04:57:17;;;;;;;20.40;16.17;;;9.30;99.90;;;;;;5031701;28;21267;-48
2022/09/28 04:59:43;;;;;;;20.37;15.97;;;9.30;99.90;;;;;;5031601;28;20764;-51
2022/09/28 05:02:09;;;;;;;20.37;15.80;;;9.40;99.90;;;;;;5031554;28;20186;-52
2022/09/28 05:04:34;;;;;;;21.27;16.30;;;9.40;99.90;;;;;;5030575;28;20897;-50
2022/09/28 05:07:00;;;;;;;20.53;15.70;;;9.30;99.90;;;;;;5031122;28;20432;-52
2022/09/28 05:09:26;;;;;;;21.60;15.63;;;9.30;99.90;;;;;;5031341;28;20218;-50
2022/09/28 05:11:52;;;;;;;18.60;13.80;;;9.30;99.90;;;;;;5031334;28;20190;-47
2022/09/28 05:14:20;;;;;;;19.03;14.83;;;9.40;99.90;;;;;;5030668;28;20265;-50
2022/09/28 05:16:46;;;;;;;18.60;14.90;;;9.40;99.90;;;;;;5010511;28;20430;-49
2022/09/28 05:19:12;;;;;;;20.20;15.80;;;9.40;99.90;;;;;;5023252;28;20433;-50
2022/09/28 05:21:38;;;;;;;19.93;14.77;;;9.40;99.90;;;;;;5032280;28;20440;-49
2022/09/28 05:24:06;;;;;;;18.27;15.17;;;9.50;99.90;;;;;;5030393;28;20186;-48
2022/09/28 05:26:32;;;;;;;16.87;15.03;;;9.40;99.90;;;;;;5029891;28;20186;-50
2022/09/28 05:28:58;;;;;;;20.90;16.70;;;9.40;99.90;;;;;;5030998;28;20940;-50
2022/09/28 05:31:26;;;;;;;17.73;15.07;;;9.30;99.90;;;;;;5031081;28;20432;-51
2022/09/28 05:33:52;;;;;;;21.27;16.87;;;9.50;99.90;;;;;;5028694;28;20448;-47
2022/09/28 05:36:18;;;;;;;21.60;16.60;;;9.50;99.90;;;;;;5030960;28;20432;-50
2022/09/28 05:38:45;;;;;;;20.77;15.57;;;9.40;99.90;;;;;;5031125;28;20440;-49
2022/09/28 05:41:11;;;;;;;21.70;17.40;;;9.40;99.90;;;;;;5029561;28;20792;-50
2022/09/28 05:43:37;;;;;;;20.30;17.23;;;9.40;99.90;;;;;;5030202;28;20558;-48
2022/09/28 05:46:04;;;;;;;22.50;16.63;;;9.40;99.90;;;;;;5030626;28;20429;-49
2022/09/28 05:48:30;;;;;;;21.73;18.27;;;9.60;99.90;;;;;;5029161;28;20426;-49
2022/09/28 05:50:57;;;;;;;23.80;17.30;;;9.50;99.90;;;;;;5029202;28;20425;-48
2022/09/28 05:53:23;;;;;;;25.20;18.60;;;9.40;99.90;;;;;;5030171;28;20182;-47
2022/09/28 05:55:49;;;;;;;21.57;18.00;;;9.30;99.90;;;;;;5030099;28;20853;-46
2022/09/28 05:58:15;;;;;;;22.83;18.40;;;9.40;99.90;;;;;;5030378;28;20265;-48
2022/09/28 06:00:41;;;;;;;21.83;17.77;;;9.30;99.90;;;;;;5030414;28;20278;-46
2022/09/28 06:03:10;;;;;;;19.80;16.33;;;9.50;99.90;;;;;;5029530;28;20545;-48
2022/09/28 06:05:38;;;;;;;22.03;17.73;;;9.70;99.90;;;;;;5030165;28;20822;-48
2022/09/28 06:08:05;;;;;;;24.63;17.93;;;9.40;99.90;;;;;;5030261;28;20458;-48
2022/09/28 06:10:31;;;;;;;22.43;18.47;;;9.40;99.90;;;;;;5028914;28;20464;-47
2022/09/28 06:12:57;;;;;;;23.73;18.30;;;9.40;99.90;;;;;;5029591;28;20433;-47
2022/09/28 06:15:26;;;;;;;22.27;18.03;;;9.50;99.90;;;;;;5030147;28;20425;-49
2022/09/28 06:17:59;;;;;;;23.73;19.00;;;9.50;99.90;;;;;;5030022;28;20459;-46
2022/09/28 06:20:26;;;;;;;26.50;19.60;;;9.40;99.90;;;;;;5031266;28;20537;-46
2022/09/28 06:22:53;;;;;;;25.00;19.47;;;9.40;99.90;;;;;;5029386;28;20425;-46
2022/09/28 06:25:20;;;;;;;25.60;19.57;;;9.40;99.90;;;;;;5030208;28;20535;-49
2022/09/28 06:28:01;;;;;;;23.63;19.30;;;9.40;99.90;;;;;;5029939;28;20820;-48
2022/09/28 06:30:28;;;;;;;27.77;20.23;;;9.50;99.90;;;;;;5030098;28;20469;-50
2022/09/28 06:32:56;;;;;;;25.47;19.60;;;9.40;99.90;;;;;;5029137;28;20425;-47
2022/09/28 06:35:24;;;;;;;26.07;21.07;;;9.40;99.90;;;;;;5030171;28;20418;-47
2022/09/28 06:37:50;;;;;;;23.13;19.40;;;9.60;99.90;;;;;;5029947;28;20916;-47
2022/09/28 06:40:16;;;;;;;24.53;20.00;;;9.60;99.90;;;;;;5030166;28;20431;-50
2022/09/28 06:42:41;;;;;;;26.40;20.00;;;9.30;99.90;;;;;;5028822;28;20429;-49
2022/09/28 06:45:07;;;;;;;25.87;19.40;;;9.30;99.90;;;;;;5029972;28;20187;-48
2022/09/28 06:47:34;;;;;;;25.00;19.60;;;9.30;99.90;;;;;;5029714;28;20186;-48
2022/09/28 06:49:59;;;;;;;27.60;20.00;;;9.40;99.90;;;;;;5029796;28;20507;-48
2022/09/28 06:52:25;;;;;;;27.17;21.33;;;9.20;99.90;;;;;;5029463;28;20457;-48
2022/09/28 06:54:51;;;;;;;26.67;21.40;;;9.50;99.90;;;;;;5028005;28;20187;-46
2022/09/28 06:57:17;;;;;;;29.33;21.73;;;9.40;99.90;;;;;;5029356;28;20182;-46
2022/09/28 06:59:43;;;;;;;32.03;21.13;;;9.40;99.90;;;;;;5029530;28;20799;-47
2022/09/28 07:02:15;;;;;;;30.97;22.47;;;9.50;99.90;;;;;;5028517;28;20428;-48
2022/09/28 07:04:41;;;;;;;27.20;21.80;;;9.70;99.90;;;;;;5028257;28;20182;-49
2022/09/28 07:07:09;;;;;;;26.57;21.13;;;9.50;99.90;;;;;;5028074;28;21222;-46
2022/09/28 07:09:35;;;;;;;26.00;20.37;;;9.70;99.90;;;;;;5031351;28;20524;-48
2022/09/28 07:12:03;;;;;;;28.30;21.53;;;9.50;99.90;;;;;;5033381;28;20486;-48
2022/09/28 07:14:31;;;;;;;27.33;20.70;;;9.60;99.90;;;;;;5032937;28;20428;-46
2022/09/28 07:16:57;;;;;;;28.93;22.40;;;9.80;99.90;;;;;;5033536;28;20425;-47
2022/09/28 07:19:23;;;;;;;28.73;21.67;;;9.80;99.90;;;;;;5034359;28;20956;-48
2022/09/28 07:21:51;;;;;;;24.60;18.80;;;9.40;99.90;;;;;;5033470;28;20190;-47
2022/09/28 07:24:17;;;;;;;28.73;22.13;;;9.70;99.90;;;;;;5032487;28;20194;-46
2022/09/28 07:26:44;;;;;;;27.07;21.00;;;9.70;99.90;;;;;;5033475;28;20436;-46
2022/09/28 07:29:10;;;;;;;30.53;22.23;;;9.80;99.90;;;;;;5033134;28;20522;-51
2022/09/28 07:31:36;;;;;;;25.20;20.03;;;9.70;99.90;;;;;;5033540;28;20457;-49
2022/09/28 07:34:02;;;;;;;27.77;21.17;;;9.70;99.90;;;;;;5032632;28;20457;-47
2022/09/28 07:36:29;;;;;;;27.83;20.30;;;9.70;99.90;;;;;;5033231;28;20478;-47
2022/09/28 07:38:54;;;;;;;28.20;22.20;;;9.50;99.90;;;;;;5032874;28;20486;-49
2022/09/28 07:41:31;;;;;;;27.47;20.70;;;9.70;99.90;;;;;;5033128;28;20432;-48
2022/09/28 07:44:04;;;;;;;26.30;20.63;;;9.70;99.90;;;;;;5032417;28;20190;-49
2022/09/28 07:46:34;;;;;;;27.33;21.67;;;9.80;99.90;;;;;;5033177;28;20927;-46
2022/09/28 07:49:01;;;;;;;30.13;22.10;;;9.70;99.90;;;;;;5031628;28;20465;-47
2022/09/28 07:51:26;;;;;;;31.13;23.17;;;9.70;99.90;;;;;;5032796;28;20566;-50
2022/09/28 07:53:55;;;;;;;30.17;22.43;;;9.70;99.90;;;;;;5030652;28;20508;-49
2022/09/28 07:56:21;;;;;;;30.10;24.00;;;9.70;99.90;;;;;;5031753;28;20186;-50
2022/09/28 07:58:47;;;;;;;31.53;22.97;;;9.80;99.90;;;;;;5031414;28;20424;-46
2022/09/28 08:01:16;;;;;;;31.37;23.63;;;9.70;99.90;;;;;;5032834;28;20912;-48
2022/09/28 08:03:46;;;;;;;29.53;23.73;;;9.80;99.90;;;;;;5031914;28;20953;-51
2022/09/28 08:06:15;;;;;;;32.10;25.30;;;9.60;99.90;;;;;;5032567;28;20453;-48
2022/09/28 08:08:43;;;;;;;33.63;25.57;;;10.00;99.90;;;;;;5032383;28;20453;-46
2022/09/28 08:11:15;;;;;;;28.67;23.23;;;9.80;99.90;;;;;;5032681;28;20451;-51
2022/09/28 08:13:41;;;;;;;28.80;23.47;;;9.90;99.90;;;;;;5019248;28;20479;-51
2022/09/28 08:16:07;;;;;;;29.17;22.33;;;9.90;99.90;;;;;;5032431;28;20835;-46
2022/09/28 08:18:34;;;;;;;31.50;23.60;;;9.60;99.90;;;;;;5032289;28;20539;-46
2022/09/28 08:23:49;;;;;;;31.10;22.67;;;10.00;99.90;;;;;;5031665;28;20448;-50
2022/09/28 08:26:15;;;;;;;29.00;22.87;;;9.80;99.90;;;;;;5031955;28;20425;-46
2022/09/28 08:28:42;;;;;;;32.00;24.17;;;10.00;99.90;;;;;;5032091;28;20913;-49
2022/09/28 08:31:08;;;;;;;29.70;24.03;;;10.00;99.90;;;;;;5032180;28;20421;-48
2022/09/28 08:33:34;;;;;;;31.10;24.40;;;9.90;99.90;;;;;;5031568;28;20425;-46
2022/09/28 08:36:00;;;;;;;29.90;23.10;;;10.00;99.90;;;;;;5031982;28;20443;-46
2022/09/28 08:38:28;;;;;;;30.17;23.97;;;10.00;99.90;;;;;;5032101;28;20428;-49
2022/09/28 08:41:03;;;;;;;33.50;23.90;;;10.00;99.90;;;;;;5032018;28;20432;-50
2022/09/28 08:44:00;;;;;;;29.93;22.80;;;10.00;99.90;;;;;;5031094;28;20446;-48
2022/09/28 08:46:36;;;;;;;29.07;22.13;;;10.10;99.90;;;;;;5027538;28;20482;-50
2022/09/28 08:49:24;;;;;;;34.57;25.80;;;10.10;99.90;;;;;;5031704;28;20456;-47
2022/09/28 08:52:04;;;;;;;30.47;23.23;;;10.20;99.90;;;;;;5031489;28;20476;-49
2022/09/28 08:54:57;;;;;;;29.60;24.40;;;10.20;99.90;;;;;;5029843;28;20819;-51
2022/09/28 08:57:32;;;;;;;28.83;22.60;;;10.00;99.90;;;;;;5031453;28;20421;-48
2022/09/28 09:00:02;;;;;;;29.80;23.20;;;10.20;99.90;;;;;;5031620;28;20472;-46
2022/09/28 09:02:32;;;;;;;29.27;23.93;;;10.10;99.90;;;;;;5031226;28;20456;-49
2022/09/28 09:05:01;;;;;;;34.63;25.53;;;10.20;99.90;;;;;;5030825;28;20441;-49
2022/09/28 09:07:42;;;;;;;31.07;24.20;;;10.30;99.90;;;;;;5031438;28;20483;-47
2022/09/28 09:10:48;;;;;;;33.97;24.97;;;10.30;99.90;;;;;;5031289;28;20460;-50
2022/09/28 09:13:46;;;;;;;30.67;23.50;;;10.50;99.90;;;;;;5030625;28;20424;-49
2022/09/28 09:16:20;;;;;;;30.57;22.43;;;10.30;99.90;;;;;;5005212;28;20456;-49
2022/09/28 09:19:05;;;;;;;31.50;24.23;;;10.30;99.90;;;;;;5031192;28;20431;-49
2022/09/28 09:21:41;;;;;;;32.47;24.47;;;10.40;99.90;;;;;;5032090;28;20486;-49
2022/09/28 09:24:20;;;;;;;31.90;24.83;;;10.40;99.90;;;;;;5030689;28;20424;-46
2022/09/28 09:26:48;;;;;;;31.40;24.23;;;10.20;99.90;;;;;;5031102;28;20425;-48
2022/09/28 09:29:46;;;;;;;28.50;22.20;;;10.50;99.90;;;;;;5029538;28;20805;-48
2022/09/28 09:32:52;;;;;;;29.80;22.63;;;10.40;99.90;;;;;;5027294;28;20796;-49
2022/09/28 09:35:49;;;;;;;32.80;24.00;;;10.50;99.90;;;;;;5030949;28;20457;-47
2022/09/28 09:38:33;;;;;;;29.17;21.80;;;10.60;99.90;;;;;;5029640;28;20436;-48
2022/09/28 09:41:12;;;;;;;26.60;21.47;;;10.60;99.90;;;;;;5031107;28;20463;-50
2022/09/28 09:44:15;;;;;;;28.50;21.20;;;10.60;99.90;;;;;;5030284;28;20421;-47
2022/09/28 09:46:47;;;;;;;26.37;21.20;;;10.60;99.90;;;;;;5030924;28;20413;-49
2022/09/28 09:49:37;;;;;;;28.90;21.17;;;10.70;99.90;;;;;;5030771;28;20476;-49
2022/09/28 09:52:23;;;;;;;24.73;19.13;;;10.80;99.90;;;;;;5030518;28;20417;-48
2022/09/28 09:55:01;;;;;;;24.27;19.73;;;10.70;99.90;;;;;;5028882;28;20508;-47
2022/09/28 09:57:38;;;;;;;25.50;19.80;;;10.70;99.90;;;;;;5030631;28;20432;-49
2022/09/28 10:00:10;;;;;;;23.27;19.30;;;10.70;99.90;;;;;;5029376;28;20943;-47
2022/09/28 10:02:38;;;;;;;26.20;20.00;;;10.70;99.90;;;;;;5029810;28;20524;-48
2022/09/28 10:05:28;;;;;;;24.07;19.73;;;10.70;99.90;;;;;;5030198;28;20456;-49
2022/09/28 10:08:12;;;;;;;23.13;18.50;;;10.70;99.90;;;;;;5030309;28;20436;-50
2022/09/28 10:10:50;;;;;;;24.03;19.57;;;10.80;99.90;;;;;;5030514;28;21086;-48
2022/09/28 10:13:16;;;;;;;28.20;20.73;;;10.90;99.90;;;;;;5029402;28;20431;-47
2022/09/28 10:15:46;;;;;;;21.60;18.40;;;11.20;99.90;;;;;;5030375;28;20514;-49
2022/09/28 10:18:14;;;;;;;20.80;17.70;;;11.40;99.90;;;;;;5030101;28;20444;-50
2022/09/28 10:20:43;;;;;;;22.23;18.00;;;11.50;99.90;;;;;;5029929;28;20436;-48
2022/09/28 10:23:22;;;;;;;20.30;17.40;;;11.60;99.90;;;;;;5029428;28;20417;-48
2022/09/28 10:25:51;;;;;;;18.27;16.37;;;11.70;99.90;;;;;;5030447;28;20425;-50
2022/09/28 10:28:30;;;;;;;15.33;13.10;;;11.80;99.90;;;;;;5029880;28;20421;-49
2022/09/28 10:30:56;;;;;;;15.77;14.17;;;11.90;99.90;;;;;;5030086;28;20468;-51
2022/09/28 10:33:30;;;;;;;16.00;13.90;;;12.10;99.90;;;;;;5028518;28;20868;-46
2022/09/28 10:35:58;;;;;;;15.13;13.53;;;12.30;99.90;;;;;;5028723;28;20198;-50
2022/09/28 10:38:25;;;;;;;14.93;13.47;;;12.50;99.90;;;;;;5028021;28;20417;-48
2022/09/28 10:40:54;;;;;;;15.80;14.00;;;12.80;99.90;;;;;;5030008;28;20420;-50
2022/09/28 10:43:30;;;;;;;13.77;12.37;;;13.00;99.90;;;;;;5028497;28;20449;-46
2022/09/28 10:46:22;;;;;;;12.80;11.60;;;13.00;99.90;;;;;;5029980;28;20420;-49
2022/09/28 10:48:59;;;;;;;16.27;14.67;;;12.90;99.90;;;;;;5029765;28;20475;-46
2022/09/28 10:51:48;;;;;;;18.27;16.33;;;12.80;99.90;;;;;;5030065;28;20421;-46
2022/09/28 10:54:15;;;;;;;17.30;15.60;;;12.60;99.90;;;;;;5027727;28;20480;-46
2022/09/28 10:56:41;;;;;;;17.93;16.20;;;12.50;99.90;;;;;;5029471;28;20428;-47
2022/09/28 10:59:27;;;;;;;16.60;14.90;;;12.40;99.90;;;;;;5029606;28;20527;-46
2022/09/28 11:01:54;;;;;;;17.43;15.70;;;12.30;99.90;;;;;;5028489;28;20491;-47
2022/09/28 11:04:22;;;;;;;17.60;15.80;;;12.30;99.90;;;;;;5029145;28;20766;-47
2022/09/28 11:06:49;;;;;;;16.37;14.67;;;12.30;99.90;;;;;;5029630;28;20446;-48
2022/09/28 11:09:26;;;;;;;14.27;12.87;;;12.30;99.90;;;;;;5029346;28;20467;-53
2022/09/28 11:11:52;;;;;;;13.80;12.40;;;12.30;99.90;;;;;;5029634;28;20851;-47
2022/09/28 11:14:39;;;;;;;14.23;12.83;;;12.40;99.90;;;;;;5029155;28;20508;-51
2022/09/28 11:17:28;;;;;;;12.90;11.70;;;12.40;99.90;;;;;;5029740;28;20697;-51
2022/09/28 11:19:55;;;;;;;11.50;9.83;;;12.40;99.90;;;;;;5030078;28;20483;-46
2022/09/28 11:22:43;;;;;;;10.90;9.90;;;12.40;99.90;;;;;;5029500;28;20453;-48
2022/09/28 11:25:12;;;;;;;11.27;10.17;;;12.40;99.90;;;;;;5044892;28;20437;-50
2022/09/28 11:27:38;;;;;;;11.67;10.53;;;12.40;99.90;;;;;;5029516;28;20471;-48
2022/09/28 11:30:04;;;;;;;10.83;9.73;;;12.50;99.90;;;;;;5029209;28;20552;-48
2022/09/28 11:32:43;;;;;;;10.90;9.90;;;12.40;99.90;;;;;;5044458;28;20807;-48
2022/09/28 11:35:21;;;;;;;9.37;8.47;;;12.40;99.90;;;;;;5029447;28;20517;-47
2022/09/28 11:38:17;;;;;;;10.93;9.83;;;12.40;99.90;;;;;;5029410;28;20428;-49
2022/09/28 11:41:11;;;;;;;10.40;9.40;;;12.40;99.90;;;;;;5027989;28;21020;-48
2022/09/28 11:44:13;;;;;;;9.70;8.70;;;12.60;99.90;;;;;;5028670;28;20417;-50
2022/09/28 11:46:57;;;;;;;9.23;8.37;;;12.60;99.90;;;;;;5029102;28;20417;-52
2022/09/28 11:49:42;;;;;;;10.30;9.40;;;12.80;99.90;;;;;;5029377;28;20457;-53
2022/09/28 11:52:17;;;;;;;9.53;8.00;;;13.10;99.90;;;;;;5029225;28;20417;-46
2022/09/28 11:54:53;;;;;;;8.10;7.40;;;13.30;99.90;;;;;;5026397;28;20503;-53
2022/09/28 11:57:26;;;;;;;9.53;8.37;;;13.50;99.90;;;;;;5032426;28;20417;-47
2022/09/28 11:59:55;;;;;;;8.20;7.50;;;13.60;99.90;;;;;;5032802;28;20425;-47
2022/09/28 12:02:40;;;;;;;7.60;6.90;;;13.90;99.90;;;;;;5032575;28;20452;-49
2022/09/28 12:05:27;;;;;;;7.40;6.80;;;14.10;99.90;;;;;;5032590;28;20526;-46
2022/09/28 12:08:01;;;;;;;8.17;6.50;;;14.20;99.90;;;;;;5032479;28;21059;-47
2022/09/28 12:10:42;;;;;;;7.53;6.80;;;14.10;99.90;;;;;;5032649;28;20488;-46
2022/09/28 12:13:13;;;;;;;8.07;7.13;;;14.00;99.90;;;;;;5031660;28;20428;-47
2022/09/28 12:15:54;;;;;;;8.10;7.33;;;13.80;99.90;;;;;;5032553;28;20474;-50
2022/09/28 12:18:26;;;;;;;7.33;6.63;;;13.70;99.90;;;;;;5032504;28;20421;-47
2022/09/28 12:21:07;;;;;;;7.30;6.70;;;13.60;99.90;;;;;;5033878;28;20422;-49
2022/09/28 12:23:34;;;;;;;7.70;7.00;;;13.40;99.90;;;;;;5031753;28;20440;-49
2022/09/28 12:26:35;;;;;;;8.37;7.67;;;13.30;99.90;;;;;;5032380;28;20432;-48
2022/09/28 12:29:09;;;;;;;7.90;7.30;;;13.20;99.90;;;;;;5030842;28;21019;-50
2022/09/28 12:31:46;;;;;;;7.10;6.50;;;13.10;99.90;;;;;;5032264;28;20417;-50
2022/09/28 12:34:12;;;;;;;9.90;6.80;;;13.10;99.90;;;;;;5031742;28;20474;-47
2022/09/28 12:37:21;;;;;;;8.27;7.07;;;13.00;99.90;;;;;;5031983;28;20417;-50
2022/09/28 12:40:23;;;;;;;9.20;8.40;;;12.90;99.90;;;;;;5029835;28;20424;-49
2022/09/28 12:42:58;;;;;;;8.03;7.33;;;12.80;99.90;;;;;;5031263;28;20555;-50
2022/09/28 12:45:43;;;;;;;8.17;7.50;;;12.70;99.90;;;;;;5031985;28;20416;-50
2022/09/28 12:48:20;;;;;;;9.23;8.20;;;12.70;99.90;;;;;;5031871;28;20413;-48
2022/09/28 12:51:01;;;;;;;9.13;8.07;;;12.70;99.90;;;;;;5031807;28;20496;-46
2022/09/28 12:53:42;;;;;;;8.83;8.03;;;12.70;99.90;;;;;;5030599;28;20421;-48
2022/09/28 12:56:18;;;;;;;8.23;7.50;;;12.60;99.90;;;;;;5031611;28;20428;-50
2022/09/28 12:59:05;;;;;;;8.67;7.67;;;12.60;99.90;;;;;;5031588;28;20408;-48
2022/09/28 13:01:39;;;;;;;6.07;5.60;;;12.60;99.90;;;;;;5031741;28;20455;-49
2022/09/28 13:04:33;;;;;;;8.37;7.57;;;12.60;99.90;;;;;;5030876;28;20822;-49
2022/09/28 13:07:10;;;;;;;7.70;7.10;;;12.70;99.90;;;;;;5030734;28;20888;-49
2022/09/28 13:10:04;;;;;;;7.73;7.03;;;12.60;99.90;;;;;;5031581;28;20878;-46
2022/09/28 13:12:58;;;;;;;7.93;7.27;;;12.50;99.90;;;;;;5031368;28;20789;-49